createdAt,value
2017-11-20T00:00:05.437Z,0
2017-11-20T00:00:45.966Z,0
2017-11-20T00:01:26.480Z,0
2017-11-20T00:02:07.001Z,0
2017-11-20T00:02:47.528Z,0
2017-11-20T00:03:28.043Z,0
2017-11-20T00:04:08.584Z,0
2017-11-20T00:04:49.122Z,0
2017-11-20T00:05:29.674Z,0
2017-11-20T00:06:10.235Z,0
2017-11-20T00:06:50.783Z,0
2017-11-20T00:07:31.316Z,0
2017-11-20T00:08:11.851Z,0
2017-11-20T00:08:52.372Z,0
2017-11-20T00:09:32.913Z,0
2017-11-20T00:10:13.447Z,0
2017-11-20T00:10:53.971Z,0
2017-11-20T00:11:34.483Z,0
2017-11-20T00:12:14.994Z,0
2017-11-20T00:12:55.528Z,0
2017-11-20T00:13:36.052Z,0
2017-11-20T00:14:16.552Z,0
2017-11-20T00:14:57.079Z,0
2017-11-20T00:15:37.599Z,0
2017-11-20T00:16:18.120Z,0
2017-11-20T00:16:58.654Z,0
2017-11-20T00:17:39.186Z,0
2017-11-20T00:18:19.723Z,0
2017-11-20T00:19:00.253Z,0
2017-11-20T00:19:40.773Z,0
2017-11-20T00:20:21.304Z,0
2017-11-20T00:21:01.838Z,0
2017-11-20T00:21:42.358Z,0
2017-11-20T00:22:22.903Z,0
2017-11-20T00:23:03.416Z,0
2017-11-20T00:23:43.940Z,0
2017-11-20T00:24:24.483Z,0
2017-11-20T00:25:04.993Z,0
2017-11-20T00:25:45.542Z,0
2017-11-20T00:26:26.070Z,0
2017-11-20T00:27:06.598Z,0
2017-11-20T00:27:47.123Z,0
2017-11-20T00:28:27.647Z,0
2017-11-20T00:29:08.168Z,0
2017-11-20T00:29:48.691Z,0
2017-11-20T00:30:29.233Z,0
2017-11-20T00:31:09.780Z,0
2017-11-20T00:31:50.290Z,0
2017-11-20T00:32:30.833Z,0
2017-11-20T00:33:11.352Z,0
2017-11-20T00:33:51.889Z,0
2017-11-20T00:34:32.424Z,0
2017-11-20T00:35:12.939Z,0
2017-11-20T00:35:53.461Z,0
2017-11-20T00:36:33.990Z,0
2017-11-20T00:37:14.511Z,0
2017-11-20T00:37:55.019Z,0
2017-11-20T00:38:35.544Z,0
2017-11-20T00:39:16.075Z,0
2017-11-20T00:39:56.596Z,0
2017-11-20T00:40:37.120Z,0
2017-11-20T00:41:17.645Z,0
2017-11-20T00:41:58.158Z,0
2017-11-20T00:42:38.675Z,0
2017-11-20T00:43:19.197Z,0
2017-11-20T00:43:59.744Z,0
2017-11-20T00:44:40.261Z,0
2017-11-20T00:45:20.803Z,0
2017-11-20T00:46:01.311Z,0
2017-11-20T00:46:41.851Z,0
2017-11-20T00:47:22.344Z,0
2017-11-20T00:48:02.876Z,0
2017-11-20T00:48:43.392Z,0
2017-11-20T00:49:23.911Z,0
2017-11-20T00:50:04.433Z,0
2017-11-20T00:50:44.962Z,0
2017-11-20T00:51:25.502Z,0
2017-11-20T00:52:06.023Z,0
2017-11-20T00:52:46.541Z,0
2017-11-20T00:53:27.064Z,0
2017-11-20T00:54:07.598Z,0
2017-11-20T00:54:48.121Z,0
2017-11-20T00:55:28.652Z,0
2017-11-20T00:56:09.185Z,0
2017-11-20T00:56:49.710Z,0
2017-11-20T00:57:30.222Z,0
2017-11-20T00:58:10.738Z,0
2017-11-20T00:58:51.253Z,0
2017-11-20T00:59:31.788Z,0
2017-11-20T01:00:12.328Z,0
2017-11-20T01:00:52.866Z,0
2017-11-20T01:01:33.382Z,0
2017-11-20T01:02:13.905Z,0
2017-11-20T01:02:54.438Z,0
2017-11-20T01:03:34.973Z,0
2017-11-20T01:04:15.499Z,0
2017-11-20T01:04:56.017Z,0
2017-11-20T01:05:36.553Z,0
2017-11-20T01:06:17.085Z,0
2017-11-20T01:06:57.628Z,0
2017-11-20T01:07:38.146Z,0
2017-11-20T01:08:18.665Z,0
2017-11-20T01:08:59.204Z,0
2017-11-20T01:09:39.803Z,0
2017-11-20T01:10:20.317Z,0
2017-11-20T01:11:00.827Z,0
2017-11-20T01:11:41.334Z,0
2017-11-20T01:12:21.859Z,0
2017-11-20T01:13:02.392Z,0
2017-11-20T01:13:42.926Z,0
2017-11-20T01:14:23.452Z,0
2017-11-20T01:15:03.968Z,0
2017-11-20T01:15:44.479Z,0
2017-11-20T01:16:25.006Z,0
2017-11-20T01:17:05.529Z,0
2017-11-20T01:17:46.065Z,0
2017-11-20T01:18:26.580Z,0
2017-11-20T01:19:07.141Z,0
2017-11-20T01:19:47.641Z,0
2017-11-20T01:20:28.155Z,0
2017-11-20T01:21:08.683Z,0
2017-11-20T01:21:49.198Z,0
2017-11-20T01:22:29.728Z,0
2017-11-20T01:23:10.241Z,0
2017-11-20T01:23:50.772Z,0
2017-11-20T01:24:31.298Z,0
2017-11-20T01:25:11.836Z,0
2017-11-20T01:25:52.338Z,0
2017-11-20T01:26:32.856Z,0
2017-11-20T01:27:13.371Z,0
2017-11-20T01:27:53.879Z,0
2017-11-20T01:28:34.381Z,0
2017-11-20T01:29:14.912Z,0
2017-11-20T01:29:55.435Z,0
2017-11-20T01:30:35.974Z,0
2017-11-20T01:31:16.487Z,0
2017-11-20T01:31:57.014Z,0
2017-11-20T01:32:37.532Z,0
2017-11-20T01:33:18.058Z,0
2017-11-20T01:33:58.586Z,0
2017-11-20T01:34:39.107Z,0
2017-11-20T01:35:19.636Z,0
2017-11-20T01:36:00.160Z,0
2017-11-20T01:36:40.682Z,0
2017-11-20T01:37:21.291Z,0
2017-11-20T01:38:01.820Z,0
2017-11-20T01:38:42.337Z,0
2017-11-20T01:39:22.874Z,0
2017-11-20T01:40:03.393Z,0
2017-11-20T01:40:43.932Z,0
2017-11-20T01:41:24.450Z,0
2017-11-20T01:42:04.966Z,0
2017-11-20T01:42:45.499Z,0
2017-11-20T01:43:26.027Z,0
2017-11-20T01:44:06.553Z,0
2017-11-20T01:44:47.085Z,0
2017-11-20T01:45:27.624Z,0
2017-11-20T01:46:08.154Z,0
2017-11-20T01:46:48.694Z,0
2017-11-20T01:47:29.217Z,0
2017-11-20T01:48:09.746Z,0
2017-11-20T01:48:50.277Z,0
2017-11-20T01:49:30.794Z,0
2017-11-20T01:50:11.321Z,0
2017-11-20T01:50:51.845Z,0
2017-11-20T01:51:32.376Z,0
2017-11-20T01:52:12.897Z,0
2017-11-20T01:52:53.423Z,0
2017-11-20T01:53:33.940Z,0
2017-11-20T01:54:14.479Z,0
2017-11-20T01:54:55.017Z,0
2017-11-20T01:55:35.563Z,0
2017-11-20T01:56:16.071Z,0
2017-11-20T01:56:56.590Z,0
2017-11-20T01:57:37.130Z,0
2017-11-20T01:58:17.673Z,0
2017-11-20T01:58:58.219Z,0
2017-11-20T01:59:38.746Z,0
2017-11-20T02:00:19.276Z,0
2017-11-20T02:00:59.794Z,0
2017-11-20T02:01:40.331Z,0
2017-11-20T02:02:20.859Z,0
2017-11-20T02:03:01.397Z,0
2017-11-20T02:03:41.919Z,0
2017-11-20T02:04:22.433Z,0
2017-11-20T02:05:02.963Z,0
2017-11-20T02:05:43.493Z,0
2017-11-20T02:06:24.016Z,0
2017-11-20T02:07:04.549Z,0
2017-11-20T02:07:45.079Z,0
2017-11-20T02:08:25.601Z,0
2017-11-20T02:09:06.128Z,0
2017-11-20T02:09:46.651Z,0
2017-11-20T02:10:27.178Z,0
2017-11-20T02:11:07.727Z,0
2017-11-20T02:11:48.249Z,0
2017-11-20T02:12:28.769Z,0
2017-11-20T02:13:09.295Z,0
2017-11-20T02:13:49.813Z,0
2017-11-20T02:14:30.356Z,0
2017-11-20T02:15:10.853Z,0
2017-11-20T02:15:51.362Z,0
2017-11-20T02:16:31.917Z,0
2017-11-20T02:17:12.411Z,0
2017-11-20T02:17:52.942Z,0
2017-11-20T02:18:33.471Z,0
2017-11-20T02:19:14.053Z,0
2017-11-20T02:19:54.591Z,0
2017-11-20T02:20:35.113Z,0
2017-11-20T02:21:15.639Z,0
2017-11-20T02:21:56.166Z,0
2017-11-20T02:22:36.701Z,0
2017-11-20T02:23:17.242Z,0
2017-11-20T02:23:57.759Z,0
2017-11-20T02:24:38.268Z,0
2017-11-20T02:25:18.801Z,0
2017-11-20T02:25:59.323Z,0
2017-11-20T02:26:39.846Z,0
2017-11-20T02:27:20.366Z,0
2017-11-20T02:28:00.888Z,0
2017-11-20T02:28:41.417Z,0
2017-11-20T02:29:21.958Z,0
2017-11-20T02:30:02.492Z,0
2017-11-20T02:30:43.012Z,0
2017-11-20T02:31:23.566Z,0
2017-11-20T02:32:04.082Z,0
2017-11-20T02:32:44.604Z,0
2017-11-20T02:33:25.203Z,0
2017-11-20T02:34:05.751Z,0
2017-11-20T02:34:46.287Z,0
2017-11-20T02:35:26.832Z,0
2017-11-20T02:36:07.348Z,0
2017-11-20T02:36:47.873Z,0
2017-11-20T02:37:28.405Z,0
2017-11-20T02:38:08.941Z,0
2017-11-20T02:38:49.466Z,0
2017-11-20T02:39:29.985Z,0
2017-11-20T02:40:10.504Z,0
2017-11-20T02:40:51.022Z,0
2017-11-20T02:41:31.534Z,0
2017-11-20T02:42:12.057Z,0
2017-11-20T02:42:52.708Z,0
2017-11-20T02:43:33.231Z,0
2017-11-20T02:44:13.764Z,0
2017-11-20T02:44:54.271Z,0
2017-11-20T02:45:34.807Z,0
2017-11-20T02:46:15.334Z,0
2017-11-20T02:46:55.852Z,0
2017-11-20T02:47:36.364Z,0
2017-11-20T02:48:16.875Z,0
2017-11-20T02:48:57.363Z,0
2017-11-20T02:49:37.886Z,0
2017-11-20T02:50:18.395Z,0
2017-11-20T02:50:58.947Z,0
2017-11-20T02:51:39.474Z,0
2017-11-20T02:52:20.011Z,0
2017-11-20T02:53:00.544Z,0
2017-11-20T02:53:41.125Z,0
2017-11-20T02:54:21.660Z,0
2017-11-20T02:55:02.183Z,0
2017-11-20T02:55:42.711Z,0
2017-11-20T02:56:23.228Z,0
2017-11-20T02:57:03.778Z,0
2017-11-20T02:57:44.331Z,0
2017-11-20T02:58:24.860Z,0
2017-11-20T02:59:05.388Z,0
2017-11-20T02:59:45.910Z,0
2017-11-20T03:00:26.417Z,0
2017-11-20T03:01:06.937Z,0
2017-11-20T03:01:47.472Z,0
2017-11-20T03:02:27.969Z,0
2017-11-20T03:03:08.486Z,0
2017-11-20T03:03:49.013Z,0
2017-11-20T03:04:29.526Z,0
2017-11-20T03:05:10.036Z,0
2017-11-20T03:05:50.562Z,0
2017-11-20T03:06:31.094Z,0
2017-11-20T03:07:11.620Z,0
2017-11-20T03:07:52.155Z,0
2017-11-20T03:08:32.683Z,0
2017-11-20T03:09:13.212Z,0
2017-11-20T03:09:53.735Z,0
2017-11-20T03:10:34.243Z,0
2017-11-20T03:11:14.771Z,0
2017-11-20T03:11:55.262Z,0
2017-11-20T03:12:35.790Z,0
2017-11-20T03:13:16.295Z,0
2017-11-20T03:13:56.805Z,0
2017-11-20T03:14:37.323Z,0
2017-11-20T03:15:17.856Z,0
2017-11-20T03:15:58.379Z,0
2017-11-20T03:16:38.900Z,0
2017-11-20T03:17:19.433Z,0
2017-11-20T03:17:59.956Z,0
2017-11-20T03:18:40.490Z,0
2017-11-20T03:19:21.026Z,0
2017-11-20T03:20:01.547Z,0
2017-11-20T03:20:42.084Z,0
2017-11-20T03:21:22.619Z,0
2017-11-20T03:22:03.132Z,0
2017-11-20T03:22:43.674Z,0
2017-11-20T03:23:24.226Z,0
2017-11-20T03:24:04.752Z,0
2017-11-20T03:24:45.275Z,0
2017-11-20T03:25:25.801Z,0
2017-11-20T03:26:06.324Z,0
2017-11-20T03:26:46.847Z,0
2017-11-20T03:27:27.379Z,0
2017-11-20T03:28:07.891Z,0
2017-11-20T03:28:48.408Z,0
2017-11-20T03:29:28.937Z,0
2017-11-20T03:30:09.438Z,0
2017-11-20T03:30:49.964Z,0
2017-11-20T03:31:30.481Z,0
2017-11-20T03:32:10.992Z,0
2017-11-20T03:32:51.511Z,0
2017-11-20T03:33:32.040Z,0
2017-11-20T03:34:12.553Z,0
2017-11-20T03:34:53.117Z,0
2017-11-20T03:35:33.611Z,0
2017-11-20T03:36:14.145Z,0
2017-11-20T03:36:54.645Z,0
2017-11-20T03:37:35.174Z,0
2017-11-20T03:38:15.677Z,0
2017-11-20T03:38:56.200Z,0
2017-11-20T03:39:36.721Z,0
2017-11-20T03:40:17.255Z,0
2017-11-20T03:40:57.778Z,0
2017-11-20T03:41:38.296Z,0
2017-11-20T03:42:18.834Z,0
2017-11-20T03:42:59.361Z,0
2017-11-20T03:43:39.880Z,0
2017-11-20T03:44:20.407Z,0
2017-11-20T03:45:00.941Z,0
2017-11-20T03:45:41.470Z,0
2017-11-20T03:46:22.005Z,0
2017-11-20T03:47:02.624Z,0
2017-11-20T03:47:43.152Z,0
2017-11-20T03:48:23.678Z,0
2017-11-20T03:49:04.220Z,0
2017-11-20T03:49:44.806Z,0
2017-11-20T03:50:25.341Z,0
2017-11-20T03:51:05.878Z,0
2017-11-20T03:51:46.385Z,0
2017-11-20T03:52:26.920Z,0
2017-11-20T03:53:07.453Z,0
2017-11-20T03:53:47.981Z,0
2017-11-20T03:54:28.507Z,0
2017-11-20T03:55:09.037Z,0
2017-11-20T03:55:49.631Z,0
2017-11-20T03:56:30.163Z,0
2017-11-20T03:57:10.653Z,0
2017-11-20T03:57:51.199Z,0
2017-11-20T03:58:31.713Z,0
2017-11-20T03:59:12.249Z,0
2017-11-20T03:59:52.778Z,0
2017-11-20T04:00:33.287Z,0
2017-11-20T04:01:13.810Z,0
2017-11-20T04:01:54.317Z,0
2017-11-20T04:02:34.837Z,0
2017-11-20T04:03:15.351Z,0
2017-11-20T04:03:55.869Z,0
2017-11-20T04:04:36.398Z,0
2017-11-20T04:05:16.928Z,0
2017-11-20T04:05:57.442Z,0
2017-11-20T04:06:37.970Z,0
2017-11-20T04:07:18.493Z,0
2017-11-20T04:07:59.024Z,0
2017-11-20T04:08:39.566Z,0
2017-11-20T04:09:20.049Z,0
2017-11-20T04:10:00.569Z,0
2017-11-20T04:10:41.081Z,0
2017-11-20T04:11:21.611Z,0
2017-11-20T04:12:02.149Z,0
2017-11-20T04:12:42.672Z,0
2017-11-20T04:13:23.198Z,0
2017-11-20T04:14:03.731Z,0
2017-11-20T04:14:44.259Z,0
2017-11-20T04:15:24.792Z,0
2017-11-20T04:16:05.338Z,0
2017-11-20T04:16:45.800Z,0
2017-11-20T04:17:26.326Z,0
2017-11-20T04:18:06.854Z,0
2017-11-20T04:18:47.365Z,0
2017-11-20T04:19:27.924Z,0
2017-11-20T04:20:08.418Z,0
2017-11-20T04:20:48.951Z,0
2017-11-20T04:21:29.464Z,0
2017-11-20T04:22:10.004Z,0
2017-11-20T04:22:50.522Z,0
2017-11-20T04:23:31.041Z,0
2017-11-20T04:24:11.567Z,0
2017-11-20T04:24:52.116Z,0
2017-11-20T04:25:32.644Z,0
2017-11-20T04:26:13.174Z,0
2017-11-20T04:26:53.702Z,0
2017-11-20T04:27:34.235Z,0
2017-11-20T04:28:14.759Z,0
2017-11-20T04:28:55.276Z,0
2017-11-20T04:29:35.794Z,0
2017-11-20T04:30:16.306Z,0
2017-11-20T04:30:56.846Z,0
2017-11-20T04:31:37.355Z,0
2017-11-20T04:32:17.877Z,0
2017-11-20T04:32:58.389Z,0
2017-11-20T04:33:38.900Z,0
2017-11-20T04:34:19.489Z,0
2017-11-20T04:34:59.966Z,0
2017-11-20T04:35:40.478Z,0
2017-11-20T04:36:21.008Z,0
2017-11-20T04:37:01.553Z,0
2017-11-20T04:37:42.103Z,0
2017-11-20T04:38:22.668Z,0
2017-11-20T04:39:03.166Z,0
2017-11-20T04:39:43.695Z,0
2017-11-20T04:40:24.212Z,0
2017-11-20T04:41:04.758Z,0
2017-11-20T04:41:45.277Z,0
2017-11-20T04:42:25.806Z,0
2017-11-20T04:43:06.336Z,0
2017-11-20T04:43:46.864Z,0
2017-11-20T04:44:27.427Z,0
2017-11-20T04:45:07.919Z,0
2017-11-20T04:45:48.452Z,0
2017-11-20T04:46:28.992Z,0
2017-11-20T04:47:09.515Z,0
2017-11-20T04:47:50.036Z,0
2017-11-20T04:48:30.574Z,0
2017-11-20T04:49:11.092Z,0
2017-11-20T04:49:51.610Z,0
2017-11-20T04:50:32.130Z,0
2017-11-20T04:51:12.669Z,0
2017-11-20T04:51:53.192Z,0
2017-11-20T04:52:33.704Z,0
2017-11-20T04:53:14.215Z,0
2017-11-20T04:53:54.761Z,0
2017-11-20T04:54:35.285Z,0
2017-11-20T04:55:15.800Z,0
2017-11-20T04:55:56.309Z,0
2017-11-20T04:56:36.834Z,0
2017-11-20T04:57:17.373Z,0
2017-11-20T04:57:57.904Z,0
2017-11-20T04:58:38.427Z,0
2017-11-20T04:59:18.962Z,0
2017-11-20T04:59:59.494Z,0
2017-11-20T05:00:40.023Z,0
2017-11-20T05:01:20.569Z,0
2017-11-20T05:02:01.076Z,0
2017-11-20T05:02:41.607Z,0
2017-11-20T05:03:22.120Z,0
2017-11-20T05:04:02.643Z,0
2017-11-20T05:04:43.204Z,0
2017-11-20T05:05:24.108Z,0
2017-11-20T05:06:04.653Z,0
2017-11-20T05:06:45.182Z,0
2017-11-20T05:07:25.704Z,0
2017-11-20T05:08:06.232Z,0
2017-11-20T05:08:46.738Z,0
2017-11-20T05:09:27.270Z,0
2017-11-20T05:10:07.785Z,0
2017-11-20T05:10:48.305Z,0
2017-11-20T05:11:28.831Z,0
2017-11-20T05:12:09.351Z,0
2017-11-20T05:12:49.880Z,0
2017-11-20T05:13:30.408Z,0
2017-11-20T05:14:10.936Z,0
2017-11-20T05:14:51.444Z,0
2017-11-20T05:15:31.976Z,0
2017-11-20T05:16:12.491Z,0
2017-11-20T05:16:53.004Z,0
2017-11-20T05:17:33.538Z,0
2017-11-20T05:18:14.057Z,0
2017-11-20T05:18:54.582Z,0
2017-11-20T05:19:35.196Z,0
2017-11-20T05:20:15.746Z,0
2017-11-20T05:20:56.264Z,0
2017-11-20T05:21:36.790Z,0
2017-11-20T05:22:17.305Z,0
2017-11-20T05:22:57.828Z,0
2017-11-20T05:23:38.344Z,0
2017-11-20T05:24:18.847Z,0
2017-11-20T05:24:59.380Z,0
2017-11-20T05:25:39.916Z,0
2017-11-20T05:26:20.439Z,0
2017-11-20T05:27:00.951Z,0
2017-11-20T05:27:41.479Z,0
2017-11-20T05:28:22.036Z,0
2017-11-20T05:29:02.516Z,0
2017-11-20T05:29:43.019Z,0
2017-11-20T05:30:23.530Z,0
2017-11-20T05:31:04.044Z,0
2017-11-20T05:31:44.560Z,0
2017-11-20T05:32:25.089Z,0
2017-11-20T05:33:05.609Z,0
2017-11-20T05:33:46.147Z,0
2017-11-20T05:34:26.672Z,0
2017-11-20T05:35:07.193Z,0
2017-11-20T05:35:47.721Z,0
2017-11-20T05:36:28.246Z,0
2017-11-20T05:37:08.780Z,0
2017-11-20T05:37:49.298Z,0
2017-11-20T05:38:29.830Z,0
2017-11-20T05:39:10.354Z,0
2017-11-20T05:39:50.886Z,0
2017-11-20T05:40:31.404Z,0
2017-11-20T05:41:11.927Z,0
2017-11-20T05:41:52.521Z,0
2017-11-20T05:42:33.045Z,0
2017-11-20T05:43:13.567Z,0
2017-11-20T05:43:54.107Z,0
2017-11-20T05:44:34.606Z,0
2017-11-20T05:45:15.125Z,0
2017-11-20T05:45:55.705Z,0
2017-11-20T05:46:36.250Z,0
2017-11-20T05:47:16.778Z,0
2017-11-20T05:47:57.306Z,0
2017-11-20T05:48:37.824Z,0
2017-11-20T05:49:18.356Z,0
2017-11-20T05:49:58.877Z,0
2017-11-20T05:50:39.411Z,0
2017-11-20T05:51:19.931Z,0
2017-11-20T05:52:00.436Z,0
2017-11-20T05:52:40.957Z,0
2017-11-20T05:53:21.482Z,0
2017-11-20T05:54:02.012Z,0
2017-11-20T05:54:42.519Z,0
2017-11-20T05:55:23.057Z,0
2017-11-20T05:56:03.593Z,0
2017-11-20T05:56:44.125Z,0
2017-11-20T05:57:24.652Z,0
2017-11-20T05:58:05.207Z,0
2017-11-20T05:58:45.705Z,0
2017-11-20T05:59:26.240Z,0
2017-11-20T06:00:06.755Z,0
2017-11-20T06:00:47.274Z,0
2017-11-20T06:01:27.788Z,0
2017-11-20T06:02:08.312Z,0
2017-11-20T06:02:48.828Z,0
2017-11-20T06:03:29.353Z,0
2017-11-20T06:04:09.870Z,0
2017-11-20T06:04:50.389Z,0
2017-11-20T06:05:30.909Z,0
2017-11-20T06:06:11.445Z,0
2017-11-20T06:06:51.955Z,0
2017-11-20T06:07:32.465Z,0
2017-11-20T06:08:12.980Z,0
2017-11-20T06:08:53.530Z,0
2017-11-20T06:09:34.035Z,0
2017-11-20T06:10:14.566Z,0
2017-11-20T06:10:55.080Z,0
2017-11-20T06:11:35.598Z,0
2017-11-20T06:12:16.116Z,0
2017-11-20T06:12:56.630Z,0
2017-11-20T06:13:37.153Z,0
2017-11-20T06:14:17.677Z,0
2017-11-20T06:14:58.163Z,0
2017-11-20T06:15:38.673Z,0
2017-11-20T06:16:19.187Z,0
2017-11-20T06:16:59.719Z,0
2017-11-20T06:17:40.217Z,0
2017-11-20T06:18:20.729Z,0
2017-11-20T06:19:01.244Z,0
2017-11-20T06:19:41.777Z,0
2017-11-20T06:20:22.418Z,0
2017-11-20T06:21:02.942Z,0
2017-11-20T06:21:43.474Z,0
2017-11-20T06:22:23.993Z,0
2017-11-20T06:23:04.542Z,0
2017-11-20T06:23:45.067Z,0
2017-11-20T06:24:25.586Z,0
2017-11-20T06:25:06.115Z,0
2017-11-20T06:25:46.635Z,0
2017-11-20T06:26:27.176Z,0
2017-11-20T06:27:07.686Z,0
2017-11-20T06:27:48.209Z,0
2017-11-20T06:28:28.726Z,0
2017-11-20T06:29:09.273Z,0
2017-11-20T06:29:49.804Z,0
2017-11-20T06:30:30.340Z,4
2017-11-20T06:31:10.842Z,4
2017-11-20T06:31:51.379Z,4
2017-11-20T06:32:31.897Z,4
2017-11-20T06:33:12.401Z,0
2017-11-20T06:33:52.923Z,4
2017-11-20T06:34:33.439Z,4
2017-11-20T06:35:13.970Z,4
2017-11-20T06:35:54.490Z,4
2017-11-20T06:36:35.019Z,4
2017-11-20T06:37:15.555Z,4
2017-11-20T06:37:56.072Z,4
2017-11-20T06:38:36.595Z,8
2017-11-20T06:39:17.121Z,8
2017-11-20T06:39:57.658Z,8
2017-11-20T06:40:38.193Z,8
2017-11-20T06:41:18.712Z,12
2017-11-20T06:41:59.256Z,12
2017-11-20T06:42:39.784Z,12
2017-11-20T06:43:20.328Z,12
2017-11-20T06:44:00.883Z,16
2017-11-20T06:44:41.410Z,12
2017-11-20T06:45:21.919Z,16
2017-11-20T06:46:02.431Z,16
2017-11-20T06:46:42.957Z,20
2017-11-20T06:47:23.488Z,20
2017-11-20T06:48:03.987Z,24
2017-11-20T06:48:44.478Z,24
2017-11-20T06:49:24.998Z,28
2017-11-20T06:50:05.519Z,28
2017-11-20T06:50:46.044Z,28
2017-11-20T06:51:26.575Z,32
2017-11-20T06:52:07.089Z,36
2017-11-20T06:52:47.598Z,36
2017-11-20T06:53:28.103Z,40
2017-11-20T06:54:08.622Z,44
2017-11-20T06:54:49.139Z,44
2017-11-20T06:55:29.649Z,44
2017-11-20T06:56:10.185Z,48
2017-11-20T06:56:50.718Z,52
2017-11-20T06:57:31.258Z,52
2017-11-20T06:58:11.776Z,56
2017-11-20T06:58:52.282Z,60
2017-11-20T06:59:32.759Z,64
2017-11-20T07:00:13.328Z,64
2017-11-20T07:00:53.839Z,68
2017-11-20T07:01:34.336Z,68
2017-11-20T07:02:14.852Z,72
2017-11-20T07:02:55.383Z,76
2017-11-20T07:03:35.885Z,80
2017-11-20T07:04:16.393Z,84
2017-11-20T07:04:56.917Z,88
2017-11-20T07:05:37.438Z,92
2017-11-20T07:06:17.932Z,100
2017-11-20T07:06:58.471Z,96
2017-11-20T07:07:39.001Z,100
2017-11-20T07:08:19.485Z,104
2017-11-20T07:09:00.007Z,108
2017-11-20T07:09:40.532Z,108
2017-11-20T07:10:21.041Z,112
2017-11-20T07:11:01.555Z,116
2017-11-20T07:11:42.163Z,120
2017-11-20T07:12:22.595Z,124
2017-11-20T07:13:03.102Z,128
2017-11-20T07:13:43.629Z,132
2017-11-20T07:14:24.145Z,136
2017-11-20T07:15:04.654Z,140
2017-11-20T07:15:45.227Z,144
2017-11-20T07:16:25.742Z,152
2017-11-20T07:17:06.268Z,156
2017-11-20T07:17:46.812Z,160
2017-11-20T07:18:27.312Z,168
2017-11-20T07:19:07.813Z,172
2017-11-20T07:19:48.335Z,172
2017-11-20T07:20:28.876Z,180
2017-11-20T07:21:09.409Z,188
2017-11-20T07:21:49.947Z,192
2017-11-20T07:22:30.449Z,200
2017-11-20T07:23:10.960Z,200
2017-11-20T07:23:51.486Z,204
2017-11-20T07:24:32.003Z,208
2017-11-20T07:25:12.526Z,212
2017-11-20T07:25:53.037Z,220
2017-11-20T07:26:33.534Z,224
2017-11-20T07:27:14.035Z,236
2017-11-20T07:27:54.553Z,240
2017-11-20T07:28:35.080Z,240
2017-11-20T07:29:15.606Z,244
2017-11-20T07:29:56.131Z,256
2017-11-20T07:30:36.845Z,260
2017-11-20T07:31:17.783Z,264
2017-11-20T07:31:59.387Z,268
2017-11-20T07:32:39.937Z,272
2017-11-20T07:33:20.450Z,280
2017-11-20T07:34:00.976Z,284
2017-11-20T07:34:41.508Z,280
2017-11-20T07:35:22.011Z,296
2017-11-20T07:36:02.518Z,296
2017-11-20T07:36:43.033Z,316
2017-11-20T07:37:23.558Z,328
2017-11-20T07:38:04.078Z,332
2017-11-20T07:38:44.611Z,336
2017-11-20T07:39:25.134Z,336
2017-11-20T07:40:05.656Z,336
2017-11-20T07:40:46.194Z,328
2017-11-20T07:41:26.719Z,332
2017-11-20T07:42:07.228Z,328
2017-11-20T07:42:47.750Z,324
2017-11-20T07:43:28.259Z,328
2017-11-20T07:44:08.775Z,332
2017-11-20T07:44:49.298Z,336
2017-11-20T07:45:29.806Z,336
2017-11-20T07:46:10.310Z,340
2017-11-20T07:46:50.844Z,344
2017-11-20T07:47:31.366Z,348
2017-11-20T07:48:11.906Z,344
2017-11-20T07:48:52.434Z,344
2017-11-20T07:49:32.957Z,344
2017-11-20T07:50:13.479Z,336
2017-11-20T07:50:54.001Z,332
2017-11-20T07:51:34.538Z,332
2017-11-20T07:52:15.060Z,324
2017-11-20T07:52:55.582Z,320
2017-11-20T07:53:36.114Z,312
2017-11-20T07:54:16.635Z,312
2017-11-20T07:54:57.138Z,304
2017-11-20T07:55:37.680Z,304
2017-11-20T07:56:18.194Z,308
2017-11-20T07:56:58.729Z,312
2017-11-20T07:57:39.260Z,316
2017-11-20T07:58:19.776Z,308
2017-11-20T07:59:00.296Z,308
2017-11-20T07:59:40.822Z,320
2017-11-20T08:00:21.347Z,316
2017-11-20T08:01:01.857Z,316
2017-11-20T08:01:42.386Z,316
2017-11-20T08:02:22.906Z,324
2017-11-20T08:03:03.434Z,332
2017-11-20T08:03:43.963Z,340
2017-11-20T08:04:24.483Z,344
2017-11-20T08:05:05.021Z,348
2017-11-20T08:05:45.550Z,348
2017-11-20T08:06:26.077Z,344
2017-11-20T08:07:06.595Z,356
2017-11-20T08:07:47.136Z,408
2017-11-20T08:08:27.657Z,432
2017-11-20T08:09:08.166Z,432
2017-11-20T08:09:48.689Z,420
2017-11-20T08:10:29.209Z,424
2017-11-20T08:11:09.716Z,432
2017-11-20T08:11:50.230Z,432
2017-11-20T08:12:30.760Z,436
2017-11-20T08:13:11.287Z,444
2017-11-20T08:13:51.808Z,448
2017-11-20T08:14:32.347Z,452
2017-11-20T08:15:12.872Z,452
2017-11-20T08:15:53.391Z,456
2017-11-20T08:16:33.910Z,448
2017-11-20T08:17:14.452Z,448
2017-11-20T08:17:54.986Z,456
2017-11-20T08:18:35.500Z,460
2017-11-20T08:19:16.021Z,456
2017-11-20T08:19:56.548Z,460
2017-11-20T08:20:37.079Z,460
2017-11-20T08:21:17.617Z,464
2017-11-20T08:21:58.121Z,480
2017-11-20T08:22:38.890Z,496
2017-11-20T08:23:19.430Z,516
2017-11-20T08:23:59.960Z,532
2017-11-20T08:24:40.496Z,556
2017-11-20T08:25:21.024Z,584
2017-11-20T08:26:01.550Z,600
2017-11-20T08:26:42.062Z,620
2017-11-20T08:27:22.585Z,636
2017-11-20T08:28:03.132Z,656
2017-11-20T08:28:43.621Z,668
2017-11-20T08:29:24.185Z,668
2017-11-20T08:30:04.708Z,672
2017-11-20T08:30:45.232Z,672
2017-11-20T08:31:25.765Z,668
2017-11-20T08:32:06.309Z,664
2017-11-20T08:32:46.886Z,656
2017-11-20T08:33:27.407Z,668
2017-11-20T08:34:07.934Z,660
2017-11-20T08:34:48.471Z,684
2017-11-20T08:35:29.000Z,676
2017-11-20T08:36:09.512Z,700
2017-11-20T08:36:50.032Z,684
2017-11-20T08:37:30.540Z,680
2017-11-20T08:38:11.070Z,688
2017-11-20T08:38:51.561Z,720
2017-11-20T08:39:34.134Z,760
2017-11-20T08:40:12.573Z,784
2017-11-20T08:40:53.100Z,812
2017-11-20T08:41:33.618Z,832
2017-11-20T08:42:14.119Z,860
2017-11-20T08:42:54.634Z,880
2017-11-20T08:43:35.157Z,876
2017-11-20T08:44:15.674Z,860
2017-11-20T08:44:56.213Z,884
2017-11-20T08:45:36.750Z,956
2017-11-20T08:46:17.281Z,1016
2017-11-20T08:46:57.814Z,1048
2017-11-20T08:47:38.324Z,1104
2017-11-20T08:48:18.835Z,1132
2017-11-20T08:48:59.362Z,1160
2017-11-20T08:49:39.876Z,1204
2017-11-20T08:50:20.425Z,1248
2017-11-20T08:51:00.951Z,1320
2017-11-20T08:51:41.493Z,1368
2017-11-20T08:52:21.979Z,1412
2017-11-20T08:53:02.529Z,1444
2017-11-20T08:53:43.016Z,1424
2017-11-20T08:54:23.529Z,1436
2017-11-20T08:55:04.222Z,1468
2017-11-20T08:55:44.700Z,1472
2017-11-20T08:56:25.185Z,1456
2017-11-20T08:57:05.729Z,1556
2017-11-20T08:57:46.215Z,1592
2017-11-20T08:58:26.725Z,1628
2017-11-20T08:59:07.259Z,1736
2017-11-20T08:59:47.782Z,1916
2017-11-20T09:00:28.284Z,2060
2017-11-20T09:01:08.824Z,2076
2017-11-20T09:01:49.358Z,2000
2017-11-20T09:02:29.869Z,1924
2017-11-20T09:03:10.408Z,1828
2017-11-20T09:03:50.946Z,1720
2017-11-20T09:04:31.474Z,1584
2017-11-20T09:05:12.014Z,1552
2017-11-20T09:05:52.541Z,1648
2017-11-20T09:06:33.052Z,1692
2017-11-20T09:07:13.580Z,1708
2017-11-20T09:07:54.130Z,1728
2017-11-20T09:08:34.681Z,1704
2017-11-20T09:09:15.216Z,1664
2017-11-20T09:09:55.753Z,1612
2017-11-20T09:10:36.259Z,1572
2017-11-20T09:11:16.790Z,1572
2017-11-20T09:11:57.331Z,1596
2017-11-20T09:12:37.860Z,1584
2017-11-20T09:13:18.385Z,1536
2017-11-20T09:13:58.915Z,1460
2017-11-20T09:14:39.450Z,1412
2017-11-20T09:15:19.980Z,1384
2017-11-20T09:16:00.493Z,1352
2017-11-20T09:16:41.024Z,1324
2017-11-20T09:17:21.547Z,1300
2017-11-20T09:18:02.097Z,1260
2017-11-20T09:18:42.634Z,1208
2017-11-20T09:19:23.163Z,1148
2017-11-20T09:20:03.799Z,1096
2017-11-20T09:20:44.324Z,1056
2017-11-20T09:21:24.842Z,1052
2017-11-20T09:22:05.354Z,1056
2017-11-20T09:22:45.872Z,1068
2017-11-20T09:23:26.387Z,1092
2017-11-20T09:24:06.940Z,1116
2017-11-20T09:24:47.466Z,1152
2017-11-20T09:25:28.004Z,1200
2017-11-20T09:26:08.512Z,1248
2017-11-20T09:26:49.048Z,1264
2017-11-20T09:27:29.560Z,1268
2017-11-20T09:28:10.096Z,1284
2017-11-20T09:28:50.595Z,1248
2017-11-20T09:29:31.126Z,1220
2017-11-20T09:30:11.651Z,1268
2017-11-20T09:30:52.178Z,1260
2017-11-20T09:31:32.709Z,1280
2017-11-20T09:32:13.237Z,1436
2017-11-20T09:32:53.760Z,1572
2017-11-20T09:33:34.285Z,1604
2017-11-20T09:34:14.809Z,1628
2017-11-20T09:34:55.343Z,1620
2017-11-20T09:35:35.866Z,1532
2017-11-20T09:36:16.393Z,1344
2017-11-20T09:36:56.907Z,1132
2017-11-20T09:37:37.421Z,992
2017-11-20T09:38:17.938Z,908
2017-11-20T09:38:58.474Z,884
2017-11-20T09:39:38.979Z,980
2017-11-20T09:40:19.511Z,1048
2017-11-20T09:41:00.023Z,1228
2017-11-20T09:41:40.555Z,1356
2017-11-20T09:42:21.089Z,1472
2017-11-20T09:43:01.635Z,1504
2017-11-20T09:43:42.164Z,1532
2017-11-20T09:44:22.683Z,1572